createdAt,value
2022-12-27T00:16:49.248Z,2.20
2022-12-27T00:20:59.926Z,2.10
2022-12-27T00:25:05.966Z,1.90
2022-12-27T00:29:11.593Z,1.33
2022-12-27T00:37:22.742Z,2.00
2022-12-27T00:41:28.457Z,1.43
2022-12-27T00:45:34.235Z,1.67
2022-12-27T00:49:39.737Z,1.27
2022-12-27T00:53:46.260Z,1.70
2022-12-27T00:57:51.790Z,2.30
2022-12-27T01:01:57.293Z,1.20
2022-12-27T01:06:16.748Z,1.40
2022-12-27T01:10:22.326Z,1.77
2022-12-27T01:14:27.875Z,2.03
2022-12-27T01:18:33.973Z,1.50
2022-12-27T01:22:39.472Z,1.67
2022-12-27T01:26:44.886Z,2.20
2022-12-27T01:30:50.409Z,1.53
2022-12-27T01:34:56.018Z,2.00
2022-12-27T01:39:01.562Z,1.37
2022-12-27T01:43:15.347Z,1.77
2022-12-27T01:47:26.588Z,1.90
2022-12-27T01:51:32.024Z,2.03
2022-12-27T01:55:56.259Z,2.37
2022-12-27T02:00:01.925Z,1.80
2022-12-27T02:04:19.155Z,1.50
2022-12-27T02:08:46.650Z,1.80
2022-12-27T02:12:52.503Z,2.57
2022-12-27T02:17:05.886Z,2.00
2022-12-27T02:21:52.988Z,2.10
2022-12-27T02:26:01.489Z,1.70
2022-12-27T02:30:10.126Z,1.40
2022-12-27T02:34:25.385Z,1.50
2022-12-27T02:38:39.776Z,1.70
2022-12-27T02:43:05.519Z,1.83
2022-12-27T02:47:42.869Z,1.80
2022-12-27T02:52:24.464Z,1.60
2022-12-27T02:57:10.998Z,2.13
2022-12-27T03:01:57.392Z,1.97
2022-12-27T03:06:41.078Z,1.67
2022-12-27T03:11:17.107Z,1.90
2022-12-27T03:15:56.655Z,1.70
2022-12-27T03:20:28.185Z,1.97
2022-12-27T03:24:58.906Z,1.53
2022-12-27T03:29:25.468Z,1.87
2022-12-27T03:33:33.349Z,1.83
2022-12-27T03:38:02.980Z,1.57
2022-12-27T03:42:36.358Z,1.80
2022-12-27T03:46:43.483Z,2.40
2022-12-27T03:51:05.011Z,2.43
2022-12-27T03:55:11.319Z,2.10
2022-12-27T03:59:16.787Z,2.07
2022-12-27T04:03:23.432Z,2.10
2022-12-27T04:07:29.000Z,2.00
2022-12-27T04:11:52.738Z,2.00
2022-12-27T04:16:16.844Z,2.00
2022-12-27T04:20:41.041Z,2.10
2022-12-27T04:37:58.258Z,1.90
2022-12-27T04:42:22.713Z,2.23
2022-12-27T04:46:46.545Z,2.00
2022-12-27T04:51:10.502Z,2.03
2022-12-27T04:55:28.230Z,2.30
2022-12-27T04:59:51.994Z,2.00
2022-12-27T05:03:57.452Z,2.20
2022-12-27T05:08:23.353Z,2.35
2022-12-27T05:12:47.265Z,2.30
2022-12-27T05:16:52.722Z,2.37
2022-12-27T05:21:06.623Z,2.10
2022-12-27T05:25:30.351Z,2.30
2022-12-27T05:29:36.086Z,2.27
2022-12-27T05:33:41.544Z,1.73
2022-12-27T05:37:53.060Z,1.67
2022-12-27T05:42:00.298Z,1.40
2022-12-27T05:46:10.078Z,1.80
2022-12-27T05:50:15.621Z,1.50
2022-12-27T06:14:48.527Z,1.40
2022-12-27T06:18:54.111Z,1.90
2022-12-27T06:23:00.359Z,1.90
2022-12-27T06:27:05.827Z,1.80
2022-12-27T06:31:12.183Z,1.83
2022-12-27T06:35:18.034Z,1.60
2022-12-27T06:39:23.589Z,1.40
2022-12-27T06:43:29.152Z,1.20
2022-12-27T06:55:45.669Z,1.10
2022-12-27T06:59:54.131Z,1.50
2022-12-27T07:04:01.105Z,1.30
2022-12-27T07:08:06.690Z,1.23
2022-12-27T08:17:47.568Z,1.23
2022-12-27T08:21:53.206Z,1.20
2022-12-27T08:25:59.188Z,1.53
2022-12-27T11:09:38.629Z,1.40
2022-12-27T11:13:44.364Z,1.40
2022-12-27T11:17:56.804Z,1.63
2022-12-27T11:22:07.389Z,1.90
2022-12-27T11:26:23.924Z,1.13
2022-12-27T11:30:32.734Z,1.70
2022-12-27T11:34:44.097Z,1.40
2022-12-27T11:38:50.647Z,1.37
2022-12-27T11:43:10.840Z,1.30
2022-12-27T11:47:47.937Z,1.10
2022-12-27T11:52:17.739Z,1.17
2022-12-27T11:56:30.312Z,1.37
2022-12-27T12:01:03.676Z,1.03
2022-12-27T12:05:55.613Z,1.63
2022-12-27T12:10:31.748Z,2.00
2022-12-27T12:14:58.121Z,1.20
2022-12-27T12:19:19.195Z,1.33
2022-12-27T12:24:01.759Z,1.67
2022-12-27T12:28:59.098Z,1.73
2022-12-27T12:33:38.644Z,1.63
2022-12-27T12:38:30.416Z,1.83
2022-12-27T12:42:44.743Z,1.43
2022-12-27T12:47:35.095Z,1.77
2022-12-27T12:52:04.216Z,1.60
2022-12-27T12:56:44.023Z,1.63
2022-12-27T13:01:14.090Z,1.73
2022-12-27T13:05:43.005Z,1.50
2022-12-27T13:10:34.483Z,1.80
2022-12-27T13:15:20.395Z,1.90
2022-12-27T13:20:20.819Z,1.73
2022-12-27T13:25:11.168Z,2.03
2022-12-27T13:29:28.618Z,1.23
2022-12-27T13:33:56.480Z,1.70
2022-12-27T13:38:40.482Z,1.40
2022-12-27T13:43:16.496Z,1.40
2022-12-27T13:48:23.412Z,1.27
2022-12-27T13:53:11.605Z,1.57
2022-12-27T13:58:09.896Z,2.47
2022-12-27T14:02:37.304Z,1.20
2022-12-27T14:07:10.480Z,1.50
2022-12-27T14:11:57.175Z,1.20
2022-12-27T14:16:39.077Z,1.53
2022-12-27T14:21:18.678Z,1.77
2022-12-27T14:26:01.525Z,1.60
2022-12-27T14:30:40.807Z,1.53
2022-12-27T14:35:16.713Z,2.10
2022-12-27T14:40:07.120Z,1.80
2022-12-27T14:44:50.861Z,1.60
2022-12-27T14:49:23.994Z,1.73
2022-12-27T14:54:00.154Z,2.10
2022-12-27T14:58:23.637Z,2.37
2022-12-27T15:03:01.185Z,1.97
2022-12-27T15:07:40.663Z,2.23
2022-12-27T15:12:47.164Z,2.73
2022-12-27T15:17:28.351Z,2.17
2022-12-27T15:21:48.782Z,2.70
2022-12-27T15:27:04.457Z,2.50
2022-12-27T15:31:45.402Z,2.07
2022-12-27T15:36:19.084Z,2.20
2022-12-27T15:40:32.928Z,2.30
2022-12-27T15:45:17.193Z,2.37
2022-12-27T15:49:55.719Z,2.90
2022-12-27T15:54:40.876Z,2.43
2022-12-27T15:59:31.610Z,2.60
2022-12-27T16:03:41.218Z,1.93
2022-12-27T16:07:48.611Z,2.13
2022-12-27T16:12:10.583Z,2.37
2022-12-27T16:16:28.564Z,2.23
2022-12-27T16:20:34.177Z,2.43
2022-12-27T16:24:42.205Z,2.07
2022-12-27T16:29:03.338Z,2.43
2022-12-27T16:33:27.247Z,2.10
2022-12-27T16:37:50.876Z,2.60
2022-12-27T16:41:56.272Z,2.47
2022-12-27T16:46:32.927Z,2.97
2022-12-27T16:51:22.542Z,2.50
2022-12-27T16:56:00.104Z,2.57
2022-12-27T17:00:22.521Z,2.60
2022-12-27T17:04:50.065Z,2.60
2022-12-27T17:09:18.231Z,2.47
2022-12-27T17:13:35.080Z,2.93
2022-12-27T17:17:45.628Z,3.23
2022-12-27T17:22:00.031Z,3.23
2022-12-27T17:26:55.352Z,3.07
2022-12-27T17:31:21.976Z,3.40
2022-12-27T17:35:43.814Z,3.50
2022-12-27T17:40:21.031Z,4.13
2022-12-27T17:44:59.893Z,3.63
2022-12-27T17:49:08.553Z,3.73
2022-12-27T17:53:39.600Z,4.70
2022-12-27T17:57:55.222Z,4.10
2022-12-27T18:02:13.971Z,4.33
2022-12-27T18:18:39.597Z,4.53
2022-12-27T18:22:45.097Z,4.90
2022-12-27T18:27:05.102Z,5.17
2022-12-27T18:31:36.265Z,5.07
2022-12-27T18:35:48.220Z,5.23
2022-12-27T18:40:02.329Z,5.07
2022-12-27T18:44:27.081Z,6.00
2022-12-27T18:48:35.680Z,6.10
2022-12-27T18:52:43.067Z,5.47
2022-12-27T18:56:53.509Z,5.20
2022-12-27T19:01:24.387Z,6.13
2022-12-27T19:05:30.534Z,5.10
2022-12-27T19:09:58.259Z,5.90
2022-12-27T19:14:05.304Z,5.03
2022-12-27T19:18:34.266Z,5.40
2022-12-27T19:22:52.469Z,5.37
2022-12-27T19:27:15.385Z,6.07
2022-12-27T19:31:22.207Z,6.27
2022-12-27T19:35:28.572Z,6.43
2022-12-27T19:39:37.255Z,5.97
2022-12-27T19:43:46.239Z,7.20
2022-12-27T19:47:52.479Z,6.93
2022-12-27T19:51:58.889Z,6.50
2022-12-27T19:56:06.061Z,7.27
2022-12-27T20:00:17.638Z,7.00
2022-12-27T20:04:23.469Z,7.40
2022-12-27T20:08:32.609Z,8.00
2022-12-27T20:12:38.223Z,8.40
2022-12-27T20:16:45.275Z,7.80
2022-12-27T20:20:51.510Z,7.87
2022-12-27T20:24:57.075Z,7.83
2022-12-27T20:29:02.510Z,7.50
2022-12-27T20:33:09.058Z,7.63
2022-12-27T20:37:16.603Z,7.50
2022-12-27T20:41:25.251Z,8.50
2022-12-27T20:45:30.910Z,7.90
2022-12-27T20:49:36.515Z,7.33
2022-12-27T20:53:42.418Z,7.57
2022-12-27T20:57:47.987Z,7.03
2022-12-27T21:01:57.234Z,8.23
2022-12-27T21:06:18.013Z,8.33
2022-12-27T21:10:23.995Z,7.57
2022-12-27T21:14:30.726Z,7.47
2022-12-27T21:18:36.266Z,7.57
2022-12-27T21:22:42.154Z,8.57
2022-12-27T21:26:51.942Z,8.20
2022-12-27T21:31:02.336Z,7.70
2022-12-27T21:35:08.560Z,8.03
2022-12-27T21:39:13.979Z,8.40
2022-12-27T21:43:19.422Z,7.80
2022-12-27T21:47:26.075Z,8.43
2022-12-27T21:51:33.536Z,7.77
2022-12-27T21:55:38.990Z,8.07
2022-12-27T21:59:44.406Z,8.80
2022-12-27T22:03:52.158Z,8.83
2022-12-27T22:07:58.042Z,8.20
2022-12-27T22:12:03.746Z,8.33
2022-12-27T22:16:19.039Z,9.17
2022-12-27T22:20:24.588Z,8.23
2022-12-27T22:24:30.071Z,8.80
2022-12-27T22:28:35.562Z,9.30
2022-12-27T22:32:41.196Z,9.90
2022-12-27T22:36:51.956Z,10.33
2022-12-27T22:41:10.246Z,9.93
2022-12-27T22:45:15.892Z,10.40
2022-12-27T22:49:21.681Z,10.70
2022-12-27T22:53:27.217Z,10.40
2022-12-27T22:57:32.789Z,10.67
2022-12-27T23:01:40.380Z,11.67
2022-12-27T23:05:46.034Z,12.20
2022-12-27T23:09:51.492Z,10.80
2022-12-27T23:14:03.665Z,10.87
2022-12-27T23:18:09.176Z,10.80
2022-12-27T23:22:14.741Z,12.10
2022-12-27T23:26:22.709Z,11.87
2022-12-27T23:30:28.179Z,11.40
2022-12-27T23:34:33.713Z,11.20
2022-12-27T23:38:40.866Z,11.70
2022-12-27T23:42:46.381Z,11.43
2022-12-27T23:46:52.008Z,11.97
2022-12-27T23:50:57.643Z,11.27
2022-12-27T23:55:03.601Z,11.33
2022-12-27T23:59:09.627Z,11.40
